Little Rock Air Force Base
KLRF : now visible

Aeroporto :











RITROVATECI SU...

 
LOGIN :

Iscrizione | Disclaimer

   EN    FR    IT 

 









Sommario :    VFR   VFR Marginale   IFR   IFR Intensivo   IFR Molto Intensivo
Visibilità : 
Base nubi : 
>= 8 km
>= 3000ft
5 / 8 km
1000 / 3000 ft
1500m / 5 km
500 / 1000 ft
800 / 1500m
200 / 500 ft
< 800m
< 200 ft
Simboli :   Temporali  Nebbia  Neve Forte  Precipitazioni Forti  Vento > 20 kt






- Altitudine del aeroporto : 311 ft


KLRF - Little Rock Air Force Base

ULTIMO METAR :
  • 250956Z AUTO 19008KT 10SM FEW210 26/23 A2998 RMK AO2 SLP151 T02640234

METARs OBSOLETI :
  • 250856Z AUTO 18006KT 10SM CLR 26/24 A2997 RMK AO2 SLP148 T02620236 55001
  • 250756Z AUTO 00000KT 10SM CLR 26/24 A2998 RMK AO2 SLP151 T02620236

TAF TAF KLRF
Valido dal 25 a 07 ore il 26 a 13 ore UTC


250700Z 2507/2613 17006KT 9999 FEW050 QNH2996INS
BECMG 2511/2512 VRB06KT 9999 BKN020 OVC030 QNH2998INS
BECMG 2514/2515 20010G15KT 9999 BKN025 BKN035 QNH2984INS
BECMG 2608/2609 18006KT 9999 BKN022 BKN030 BKN045 QNH2989INS TX35/2522Z TN25/2511Z
FIR KZME / America del Nord



MetMap, La meteo Aeronautica in un colpo d'occhio ! - Copyright ORBIFLY Dicembre 2007 - Disclaimer

ORBIFLY MET'MAP TEAM :

Programmazione e sviluppo : Alexandra Zaïnal
Concezione : Baudouin d'Aumeries
Aiuto per la programmazione : Marc-Olivier Méhu
Supporto tecnico e logistico : Manuel Goepfert
Aiuto per la traduzione : Arnaldo La Scala

Contatto : metmap@orbifly.com




FONTI E CREDITI :

   NOAA       Earth
Advisory